sensor_id;sensor_type;location;lat;lon;timestamp;P1;durP1;ratioP1;P2;durP2;ratioP2
67378;SDS011;54262;44.642;-0.974;2022-11-12T00:00:21;4.80;;;4.47;;
67378;SDS011;54262;44.642;-0.974;2022-11-12T00:02:47;5.30;;;5.03;;
67378;SDS011;54262;44.642;-0.974;2022-11-12T00:05:13;4.20;;;3.90;;
67378;SDS011;54262;44.642;-0.974;2022-11-12T00:07:39;5.20;;;4.70;;
67378;SDS011;54262;44.642;-0.974;2022-11-12T00:10:05;4.60;;;4.30;;
67378;SDS011;54262;44.642;-0.974;2022-11-12T00:12:31;4.68;;;4.25;;
67378;SDS011;54262;44.642;-0.974;2022-11-12T00:14:58;4.13;;;3.92;;
67378;SDS011;54262;44.642;-0.974;2022-11-12T00:17:24;4.95;;;4.60;;
67378;SDS011;54262;44.642;-0.974;2022-11-12T00:19:50;4.43;;;4.13;;
67378;SDS011;54262;44.642;-0.974;2022-11-12T00:22:17;3.90;;;3.70;;
67378;SDS011;54262;44.642;-0.974;2022-11-12T00:24:44;6.00;;;4.45;;
67378;SDS011;54262;44.642;-0.974;2022-11-12T00:27:10;4.00;;;3.70;;
67378;SDS011;54262;44.642;-0.974;2022-11-12T00:29:36;4.22;;;3.92;;
67378;SDS011;54262;44.642;-0.974;2022-11-12T00:32:04;4.43;;;4.13;;
67378;SDS011;54262;44.642;-0.974;2022-11-12T00:34:30;4.95;;;4.55;;
67378;SDS011;54262;44.642;-0.974;2022-11-12T00:36:56;4.03;;;3.72;;
67378;SDS011;54262;44.642;-0.974;2022-11-12T00:39:22;3.78;;;3.58;;
67378;SDS011;54262;44.642;-0.974;2022-11-12T00:41:48;4.47;;;4.18;;
67378;SDS011;54262;44.642;-0.974;2022-11-12T00:44:14;4.88;;;4.18;;
67378;SDS011;54262;44.642;-0.974;2022-11-12T00:46:40;4.25;;;3.95;;
67378;SDS011;54262;44.642;-0.974;2022-11-12T00:49:07;4.80;;;4.40;;
67378;SDS011;54262;44.642;-0.974;2022-11-12T00:51:33;5.15;;;4.75;;
67378;SDS011;54262;44.642;-0.974;2022-11-12T00:53:59;4.32;;;4.03;;
67378;SDS011;54262;44.642;-0.974;2022-11-12T00:56:25;4.65;;;4.22;;
67378;SDS011;54262;44.642;-0.974;2022-11-12T00:58:52;5.30;;;3.70;;
67378;SDS011;54262;44.642;-0.974;2022-11-12T01:01:18;4.25;;;3.85;;
67378;SDS011;54262;44.642;-0.974;2022-11-12T01:03:44;3.30;;;3.13;;
67378;SDS011;54262;44.642;-0.974;2022-11-12T01:06:14;3.72;;;3.53;;
67378;SDS011;54262;44.642;-0.974;2022-11-12T01:08:41;3.35;;;3.15;;
67378;SDS011;54262;44.642;-0.974;2022-11-12T01:11:12;3.92;;;3.63;;
67378;SDS011;54262;44.642;-0.974;2022-11-12T01:13:39;4.47;;;3.42;;
67378;SDS011;54262;44.642;-0.974;2022-11-12T01:16:09;5.25;;;3.83;;
67378;SDS011;54262;44.642;-0.974;2022-11-12T01:18:36;4.75;;;4.45;;
67378;SDS011;54262;44.642;-0.974;2022-11-12T01:21:03;5.10;;;4.80;;
67378;SDS011;54262;44.642;-0.974;2022-11-12T01:23:30;4.50;;;3.97;;
67378;SDS011;54262;44.642;-0.974;2022-11-12T01:26:02;4.95;;;4.13;;
67378;SDS011;54262;44.642;-0.974;2022-11-12T01:28:28;4.53;;;3.90;;
67378;SDS011;54262;44.642;-0.974;2022-11-12T01:30:55;4.07;;;3.88;;
67378;SDS011;54262;44.642;-0.974;2022-11-12T01:33:21;4.78;;;4.38;;
67378;SDS011;54262;44.642;-0.974;2022-11-12T01:35:47;6.53;;;6.13;;
67378;SDS011;54262;44.642;-0.974;2022-11-12T01:38:13;5.38;;;4.97;;
67378;SDS011;54262;44.642;-0.974;2022-11-12T01:40:39;3.80;;;3.60;;
67378;SDS011;54262;44.642;-0.974;2022-11-12T01:43:12;3.47;;;3.28;;
67378;SDS011;54262;44.642;-0.974;2022-11-12T01:45:39;4.15;;;3.85;;
67378;SDS011;54262;44.642;-0.974;2022-11-12T01:48:23;3.35;;;3.15;;
67378;SDS011;54262;44.642;-0.974;2022-11-12T01:50:50;3.42;;;3.22;;
67378;SDS011;54262;44.642;-0.974;2022-11-12T01:53:17;3.83;;;3.40;;
67378;SDS011;54262;44.642;-0.974;2022-11-12T01:55:45;3.00;;;2.90;;
67378;SDS011;54262;44.642;-0.974;2022-11-12T01:58:14;4.25;;;3.40;;
67378;SDS011;54262;44.642;-0.974;2022-11-12T02:00:41;3.38;;;3.17;;
67378;SDS011;54262;44.642;-0.974;2022-11-12T02:03:12;3.85;;;3.63;;
67378;SDS011;54262;44.642;-0.974;2022-11-12T02:05:38;4.13;;;3.83;;
67378;SDS011;54262;44.642;-0.974;2022-11-12T02:08:04;12.80;;;5.60;;
67378;SDS011;54262;44.642;-0.974;2022-11-12T02:10:31;7.13;;;5.93;;
67378;SDS011;54262;44.642;-0.974;2022-11-12T02:12:57;3.65;;;3.35;;
67378;SDS011;54262;44.642;-0.974;2022-11-12T02:15:42;4.63;;;4.22;;
67378;SDS011;54262;44.642;-0.974;2022-11-12T02:18:08;4.30;;;3.95;;
67378;SDS011;54262;44.642;-0.974;2022-11-12T02:20:34;5.63;;;4.88;;
67378;SDS011;54262;44.642;-0.974;2022-11-12T02:23:01;6.20;;;5.72;;
67378;SDS011;54262;44.642;-0.974;2022-11-12T02:25:27;10.63;;;5.22;;
67378;SDS011;54262;44.642;-0.974;2022-11-12T02:27:54;7.00;;;3.95;;
67378;SDS011;54262;44.642;-0.974;2022-11-12T02:30:31;4.10;;;3.80;;
67378;SDS011;54262;44.642;-0.974;2022-11-12T02:32:57;4.07;;;3.83;;
67378;SDS011;54262;44.642;-0.974;2022-11-12T02:35:24;5.32;;;3.85;;
67378;SDS011;54262;44.642;-0.974;2022-11-12T02:37:50;3.85;;;3.55;;
67378;SDS011;54262;44.642;-0.974;2022-11-12T02:40:16;4.28;;;3.45;;
67378;SDS011;54262;44.642;-0.974;2022-11-12T02:42:42;3.55;;;3.35;;
67378;SDS011;54262;44.642;-0.974;2022-11-12T02:45:08;4.50;;;3.53;;
67378;SDS011;54262;44.642;-0.974;2022-11-12T02:47:34;4.40;;;2.97;;
67378;SDS011;54262;44.642;-0.974;2022-11-12T02:50:01;3.35;;;3.08;;
67378;SDS011;54262;44.642;-0.974;2022-11-12T02:52:27;5.03;;;3.42;;
67378;SDS011;54262;44.642;-0.974;2022-11-12T02:54:53;3.33;;;3.13;;
67378;SDS011;54262;44.642;-0.974;2022-11-12T02:57:19;4.40;;;3.60;;
67378;SDS011;54262;44.642;-0.974;2022-11-12T02:59:45;4.35;;;3.95;;
67378;SDS011;54262;44.642;-0.974;2022-11-12T03:02:11;3.70;;;3.47;;
67378;SDS011;54262;44.642;-0.974;2022-11-12T03:04:37;4.07;;;3.67;;
67378;SDS011;54262;44.642;-0.974;2022-11-12T03:07:03;4.22;;;3.70;;
67378;SDS011;54262;44.642;-0.974;2022-11-12T03:09:29;3.55;;;3.25;;
67378;SDS011;54262;44.642;-0.974;2022-11-12T03:11:55;3.05;;;2.85;;
67378;SDS011;54262;44.642;-0.974;2022-11-12T03:14:22;3.38;;;3.08;;
67378;SDS011;54262;44.642;-0.974;2022-11-12T03:16:48;2.83;;;2.63;;
67378;SDS011;54262;44.642;-0.974;2022-11-12T03:19:14;5.38;;;3.03;;
67378;SDS011;54262;44.642;-0.974;2022-11-12T03:21:40;3.20;;;3.00;;
67378;SDS011;54262;44.642;-0.974;2022-11-12T03:24:06;2.80;;;2.58;;
67378;SDS011;54262;44.642;-0.974;2022-11-12T03:26:32;4.43;;;2.95;;
67378;SDS011;54262;44.642;-0.974;2022-11-12T03:28:59;3.05;;;2.78;;
67378;SDS011;54262;44.642;-0.974;2022-11-12T03:31:25;3.30;;;3.00;;
67378;SDS011;54262;44.642;-0.974;2022-11-12T03:33:51;2.83;;;2.63;;
67378;SDS011;54262;44.642;-0.974;2022-11-12T03:36:17;3.58;;;3.13;;
67378;SDS011;54262;44.642;-0.974;2022-11-12T03:38:43;3.13;;;2.85;;
67378;SDS011;54262;44.642;-0.974;2022-11-12T03:41:09;2.70;;;2.50;;
67378;SDS011;54262;44.642;-0.974;2022-11-12T03:43:35;2.85;;;2.67;;
67378;SDS011;54262;44.642;-0.974;2022-11-12T03:46:01;3.80;;;2.80;;
67378;SDS011;54262;44.642;-0.974;2022-11-12T03:48:27;3.00;;;2.80;;
67378;SDS011;54262;44.642;-0.974;2022-11-12T03:50:57;2.63;;;2.53;;
67378;SDS011;54262;44.642;-0.974;2022-11-12T03:53:23;4.97;;;2.88;;
67378;SDS011;54262;44.642;-0.974;2022-11-12T03:55:49;6.93;;;2.63;;
67378;SDS011;54262;44.642;-0.974;2022-11-12T03:58:15;5.40;;;2.50;;
67378;SDS011;54262;44.642;-0.974;2022-11-12T04:00:42;3.30;;;3.00;;
67378;SDS011;54262;44.642;-0.974;2022-11-12T04:03:08;3.47;;;3.17;;
67378;SDS011;54262;44.642;-0.974;2022-11-12T04:05:34;6.28;;;3.10;;
67378;SDS011;54262;44.642;-0.974;2022-11-12T04:08:20;2.55;;;2.40;;
67378;SDS011;54262;44.642;-0.974;2022-11-12T04:11:08;2.95;;;2.75;;
67378;SDS011;54262;44.642;-0.974;2022-11-12T04:13:36;3.30;;;3.00;;
67378;SDS011;54262;44.642;-0.974;2022-11-12T04:16:04;5.95;;;2.97;;
67378;SDS011;54262;44.642;-0.974;2022-11-12T04:18:50;2.42;;;2.33;;
67378;SDS011;54262;44.642;-0.974;2022-11-12T04:21:36;3.08;;;2.63;;
67378;SDS011;54262;44.642;-0.974;2022-11-12T04:24:19;3.40;;;2.75;;
67378;SDS011;54262;44.642;-0.974;2022-11-12T04:27:04;2.33;;;2.22;;
67378;SDS011;54262;44.642;-0.974;2022-11-12T04:29:31;5.13;;;2.80;;
67378;SDS011;54262;44.642;-0.974;2022-11-12T04:32:16;2.90;;;2.65;;
67378;SDS011;54262;44.642;-0.974;2022-11-12T04:34:42;2.85;;;2.65;;
67378;SDS011;54262;44.642;-0.974;2022-11-12T04:37:08;2.75;;;2.65;;
67378;SDS011;54262;44.642;-0.974;2022-11-12T04:39:34;6.00;;;2.47;;
67378;SDS011;54262;44.642;-0.974;2022-11-12T04:42:00;2.85;;;2.65;;
67378;SDS011;54262;44.642;-0.974;2022-11-12T04:44:45;2.33;;;2.13;;
67378;SDS011;54262;44.642;-0.974;2022-11-12T04:47:40;3.83;;;2.78;;
67378;SDS011;54262;44.642;-0.974;2022-11-12T04:50:14;6.22;;;2.58;;
67378;SDS011;54262;44.642;-0.974;2022-11-12T04:52:40;2.63;;;2.42;;
67378;SDS011;54262;44.642;-0.974;2022-11-12T04:55:07;2.42;;;2.22;;
67378;SDS011;54262;44.642;-0.974;2022-11-12T04:57:33;3.13;;;2.58;;
67378;SDS011;54262;44.642;-0.974;2022-11-12T04:59:59;6.15;;;3.08;;
67378;SDS011;54262;44.642;-0.974;2022-11-12T05:02:26;4.55;;;2.72;;
67378;SDS011;54262;44.642;-0.974;2022-11-12T05:04:52;2.55;;;2.35;;
67378;SDS011;54262;44.642;-0.974;2022-11-12T05:07:18;2.22;;;2.13;;
67378;SDS011;54262;44.642;-0.974;2022-11-12T05:09:44;2.30;;;2.10;;
67378;SDS011;54262;44.642;-0.974;2022-11-12T05:12:10;2.20;;;2.10;;
67378;SDS011;54262;44.642;-0.974;2022-11-12T05:14:37;2.63;;;2.50;;
67378;SDS011;54262;44.642;-0.974;2022-11-12T05:17:03;1.90;;;1.80;;
67378;SDS011;54262;44.642;-0.974;2022-11-12T05:19:29;4.03;;;2.30;;
67378;SDS011;54262;44.642;-0.974;2022-11-12T05:21:56;2.92;;;2.40;;
67378;SDS011;54262;44.642;-0.974;2022-11-12T05:24:36;2.65;;;2.17;;
67378;SDS011;54262;44.642;-0.974;2022-11-12T05:27:04;2.67;;;2.30;;
67378;SDS011;54262;44.642;-0.974;2022-11-12T05:29:30;2.88;;;2.67;;
67378;SDS011;54262;44.642;-0.974;2022-11-12T05:31:57;2.83;;;2.35;;
67378;SDS011;54262;44.642;-0.974;2022-11-12T05:34:23;2.50;;;2.30;;
67378;SDS011;54262;44.642;-0.974;2022-11-12T05:36:49;2.78;;;2.58;;
67378;SDS011;54262;44.642;-0.974;2022-11-12T05:39:15;2.55;;;2.35;;
67378;SDS011;54262;44.642;-0.974;2022-11-12T05:41:41;2.78;;;2.55;;
67378;SDS011;54262;44.642;-0.974;2022-11-12T05:44:08;2.80;;;2.45;;
67378;SDS011;54262;44.642;-0.974;2022-11-12T05:46:34;3.03;;;2.83;;
67378;SDS011;54262;44.642;-0.974;2022-11-12T05:49:00;2.20;;;2.10;;
67378;SDS011;54262;44.642;-0.974;2022-11-12T05:51:26;2.67;;;2.28;;
67378;SDS011;54262;44.642;-0.974;2022-11-12T05:53:52;2.45;;;2.22;;
67378;SDS011;54262;44.642;-0.974;2022-11-12T05:56:19;2.45;;;2.25;;
67378;SDS011;54262;44.642;-0.974;2022-11-12T05:58:45;3.40;;;3.10;;
67378;SDS011;54262;44.642;-0.974;2022-11-12T06:01:11;2.35;;;2.17;;
67378;SDS011;54262;44.642;-0.974;2022-11-12T06:03:37;3.15;;;2.45;;
67378;SDS011;54262;44.642;-0.974;2022-11-12T06:06:03;3.03;;;2.72;;
67378;SDS011;54262;44.642;-0.974;2022-11-12T06:08:29;3.75;;;2.42;;
67378;SDS011;54262;44.642;-0.974;2022-11-12T06:10:55;2.78;;;2.58;;
67378;SDS011;54262;44.642;-0.974;2022-11-12T06:13:22;4.47;;;2.80;;
67378;SDS011;54262;44.642;-0.974;2022-11-12T06:15:49;3.85;;;2.58;;
67378;SDS011;54262;44.642;-0.974;2022-11-12T06:18:15;2.42;;;2.22;;
67378;SDS011;54262;44.642;-0.974;2022-11-12T06:20:41;2.33;;;2.10;;
67378;SDS011;54262;44.642;-0.974;2022-11-12T06:23:07;2.50;;;2.40;;
67378;SDS011;54262;44.642;-0.974;2022-11-12T06:25:33;2.35;;;2.15;;
67378;SDS011;54262;44.642;-0.974;2022-11-12T06:27:59;4.88;;;2.42;;
67378;SDS011;54262;44.642;-0.974;2022-11-12T06:30:25;2.60;;;2.40;;
67378;SDS011;54262;44.642;-0.974;2022-11-12T06:32:51;2.40;;;2.30;;
67378;SDS011;54262;44.642;-0.974;2022-11-12T06:35:18;2.40;;;2.20;;
67378;SDS011;54262;44.642;-0.974;2022-11-12T06:37:47;2.13;;;2.00;;
67378;SDS011;54262;44.642;-0.974;2022-11-12T06:40:14;2.25;;;1.92;;
67378;SDS011;54262;44.642;-0.974;2022-11-12T06:42:40;2.50;;;2.28;;
67378;SDS011;54262;44.642;-0.974;2022-11-12T06:45:06;2.28;;;1.98;;
67378;SDS011;54262;44.642;-0.974;2022-11-12T06:47:32;2.65;;;2.45;;
67378;SDS011;54262;44.642;-0.974;2022-11-12T06:49:58;4.00;;;2.47;;
67378;SDS011;54262;44.642;-0.974;2022-11-12T06:52:24;2.53;;;2.33;;
67378;SDS011;54262;44.642;-0.974;2022-11-12T06:54:50;2.47;;;2.28;;
67378;SDS011;54262;44.642;-0.974;2022-11-12T06:57:17;2.97;;;2.85;;
67378;SDS011;54262;44.642;-0.974;2022-11-12T06:59:43;2.10;;;2.00;;
67378;SDS011;54262;44.642;-0.974;2022-11-12T07:02:10;4.28;;;1.90;;
67378;SDS011;54262;44.642;-0.974;2022-11-12T07:04:37;2.53;;;2.40;;
67378;SDS011;54262;44.642;-0.974;2022-11-12T07:07:03;2.33;;;2.22;;
67378;SDS011;54262;44.642;-0.974;2022-11-12T07:09:29;2.20;;;2.10;;
67378;SDS011;54262;44.642;-0.974;2022-11-12T07:11:55;2.38;;;2.17;;
67378;SDS011;54262;44.642;-0.974;2022-11-12T07:14:22;3.08;;;2.88;;
67378;SDS011;54262;44.642;-0.974;2022-11-12T07:16:48;2.50;;;2.40;;
67378;SDS011;54262;44.642;-0.974;2022-11-12T07:19:14;4.65;;;1.80;;
67378;SDS011;54262;44.642;-0.974;2022-11-12T07:21:40;2.40;;;2.28;;
67378;SDS011;54262;44.642;-0.974;2022-11-12T07:24:06;2.90;;;2.10;;
67378;SDS011;54262;44.642;-0.974;2022-11-12T07:26:32;3.63;;;3.13;;
67378;SDS011;54262;44.642;-0.974;2022-11-12T07:28:58;3.58;;;3.28;;
67378;SDS011;54262;44.642;-0.974;2022-11-12T07:31:24;3.20;;;2.90;;
67378;SDS011;54262;44.642;-0.974;2022-11-12T07:33:50;2.45;;;2.08;;
67378;SDS011;54262;44.642;-0.974;2022-11-12T07:36:18;2.65;;;2.50;;
67378;SDS011;54262;44.642;-0.974;2022-11-12T07:38:44;4.28;;;1.90;;
67378;SDS011;54262;44.642;-0.974;2022-11-12T07:41:12;2.78;;;2.60;;
67378;SDS011;54262;44.642;-0.974;2022-11-12T07:43:38;4.20;;;2.60;;
67378;SDS011;54262;44.642;-0.974;2022-11-12T07:46:12;2.30;;;2.10;;
67378;SDS011;54262;44.642;-0.974;2022-11-12T07:48:38;2.70;;;2.50;;
67378;SDS011;54262;44.642;-0.974;2022-11-12T07:51:14;2.72;;;2.53;;
67378;SDS011;54262;44.642;-0.974;2022-11-12T07:53:41;2.00;;;1.90;;
67378;SDS011;54262;44.642;-0.974;2022-11-12T07:56:08;2.58;;;2.40;;
67378;SDS011;54262;44.642;-0.974;2022-11-12T07:58:35;1.98;;;1.75;;
67378;SDS011;54262;44.642;-0.974;2022-11-12T08:01:11;4.25;;;4.05;;
67378;SDS011;54262;44.642;-0.974;2022-11-12T08:03:43;3.40;;;3.20;;
67378;SDS011;54262;44.642;-0.974;2022-11-12T08:06:09;2.20;;;2.10;;
67378;SDS011;54262;44.642;-0.974;2022-11-12T08:08:35;4.25;;;4.05;;
67378;SDS011;54262;44.642;-0.974;2022-11-12T08:11:01;5.28;;;4.95;;
67378;SDS011;54262;44.642;-0.974;2022-11-12T08:13:27;8.15;;;7.55;;
67378;SDS011;54262;44.642;-0.974;2022-11-12T08:15:55;6.72;;;6.43;;
67378;SDS011;54262;44.642;-0.974;2022-11-12T08:18:21;5.10;;;4.90;;
67378;SDS011;54262;44.642;-0.974;2022-11-12T08:20:48;6.63;;;6.10;;
67378;SDS011;54262;44.642;-0.974;2022-11-12T08:23:14;4.20;;;3.92;;
67378;SDS011;54262;44.642;-0.974;2022-11-12T08:25:40;4.90;;;4.60;;
67378;SDS011;54262;44.642;-0.974;2022-11-12T08:28:06;5.35;;;5.05;;
67378;SDS011;54262;44.642;-0.974;2022-11-12T08:30:32;4.25;;;4.05;;
67378;SDS011;54262;44.642;-0.974;2022-11-12T08:32:59;3.72;;;3.53;;
67378;SDS011;54262;44.642;-0.974;2022-11-12T08:35:26;6.55;;;6.05;;
67378;SDS011;54262;44.642;-0.974;2022-11-12T08:38:02;6.68;;;6.28;;
67378;SDS011;54262;44.642;-0.974;2022-11-12T08:40:29;3.65;;;3.45;;
67378;SDS011;54262;44.642;-0.974;2022-11-12T08:42:59;6.55;;;6.15;;
67378;SDS011;54262;44.642;-0.974;2022-11-12T08:45:26;7.32;;;6.97;;
67378;SDS011;54262;44.642;-0.974;2022-11-12T08:47:53;6.38;;;6.07;;
67378;SDS011;54262;44.642;-0.974;2022-11-12T08:50:23;8.48;;;7.85;;
67378;SDS011;54262;44.642;-0.974;2022-11-12T08:52:49;8.43;;;7.35;;
67378;SDS011;54262;44.642;-0.974;2022-11-12T08:55:15;8.57;;;8.07;;
67378;SDS011;54262;44.642;-0.974;2022-11-12T08:57:41;7.18;;;6.82;;
67378;SDS011;54262;44.642;-0.974;2022-11-12T09:00:11;5.28;;;4.57;;
67378;SDS011;54262;44.642;-0.974;2022-11-12T09:02:37;4.40;;;4.20;;
67378;SDS011;54262;44.642;-0.974;2022-11-12T09:05:04;3.80;;;3.60;;
67378;SDS011;54262;44.642;-0.974;2022-11-12T09:07:30;4.55;;;4.35;;
67378;SDS011;54262;44.642;-0.974;2022-11-12T09:09:57;4.13;;;3.85;;
67378;SDS011;54262;44.642;-0.974;2022-11-12T09:12:23;4.18;;;3.90;;
67378;SDS011;54262;44.642;-0.974;2022-11-12T09:14:49;4.50;;;4.30;;
67378;SDS011;54262;44.642;-0.974;2022-11-12T09:17:16;4.75;;;4.55;;
67378;SDS011;54262;44.642;-0.974;2022-11-12T09:19:42;3.80;;;3.60;;
67378;SDS011;54262;44.642;-0.974;2022-11-12T09:22:08;2.90;;;2.70;;
67378;SDS011;54262;44.642;-0.974;2022-11-12T09:24:34;4.00;;;3.75;;
67378;SDS011;54262;44.642;-0.974;2022-11-12T09:27:00;3.42;;;3.22;;
67378;SDS011;54262;44.642;-0.974;2022-11-12T09:29:26;4.40;;;4.10;;
67378;SDS011;54262;44.642;-0.974;2022-11-12T09:31:52;6.38;;;4.45;;
67378;SDS011;54262;44.642;-0.974;2022-11-12T09:34:19;4.85;;;4.55;;
67378;SDS011;54262;44.642;-0.974;2022-11-12T09:36:45;2.70;;;2.60;;
67378;SDS011;54262;44.642;-0.974;2022-11-12T09:39:11;2.92;;;2.75;;
67378;SDS011;54262;44.642;-0.974;2022-11-12T09:41:37;3.30;;;3.00;;
67378;SDS011;54262;44.642;-0.974;2022-11-12T09:44:11;2.70;;;2.60;;
67378;SDS011;54262;44.642;-0.974;2022-11-12T09:49:06;2.90;;;2.80;;
67378;SDS011;54262;44.642;-0.974;2022-11-12T09:51:40;3.35;;;3.03;;
67378;SDS011;54262;44.642;-0.974;2022-11-12T09:54:23;3.88;;;3.22;;
67378;SDS011;54262;44.642;-0.974;2022-11-12T09:56:50;2.50;;;2.40;;
67378;SDS011;54262;44.642;-0.974;2022-11-12T09:59:17;2.33;;;2.22;;
67378;SDS011;54262;44.642;-0.974;2022-11-12T10:09:27;2.95;;;2.75;;
67378;SDS011;54262;44.642;-0.974;2022-11-12T10:17:51;2.35;;;2.25;;
67378;SDS011;54262;44.642;-0.974;2022-11-12T10:20:23;2.92;;;2.72;;
67378;SDS011;54262;44.642;-0.974;2022-11-12T10:25:17;2.22;;;2.08;;
67378;SDS011;54262;44.642;-0.974;2022-11-12T10:27:44;7.28;;;2.80;;
67378;SDS011;54262;44.642;-0.974;2022-11-12T10:30:20;2.97;;;2.75;;
67378;SDS011;54262;44.642;-0.974;2022-11-12T10:32:48;3.78;;;2.83;;
67378;SDS011;54262;44.642;-0.974;2022-11-12T10:35:23;5.07;;;3.08;;
67378;SDS011;54262;44.642;-0.974;2022-11-12T10:45:25;2.33;;;2.22;;
67378;SDS011;54262;44.642;-0.974;2022-11-12T10:47:52;2.47;;;2.30;;
67378;SDS011;54262;44.642;-0.974;2022-11-12T10:50:26;5.93;;;2.95;;
67378;SDS011;54262;44.642;-0.974;2022-11-12T10:52:58;4.78;;;3.03;;
67378;SDS011;54262;44.642;-0.974;2022-11-12T10:55:26;6.25;;;3.05;;
67378;SDS011;54262;44.642;-0.974;2022-11-12T11:00:34;2.97;;;2.85;;
67378;SDS011;54262;44.642;-0.974;2022-11-12T11:03:02;8.25;;;3.42;;
67378;SDS011;54262;44.642;-0.974;2022-11-12T11:05:37;3.60;;;3.15;;
67378;SDS011;54262;44.642;-0.974;2022-11-12T11:08:11;3.50;;;3.00;;
67378;SDS011;54262;44.642;-0.974;2022-11-12T11:10:37;2.95;;;2.67;;
67378;SDS011;54262;44.642;-0.974;2022-11-12T11:13:15;4.53;;;2.83;;
67378;SDS011;54262;44.642;-0.974;2022-11-12T11:15:56;2.67;;;2.47;;
67378;SDS011;54262;44.642;-0.974;2022-11-12T11:18:22;2.35;;;2.20;;
67378;SDS011;54262;44.642;-0.974;2022-11-12T11:20:52;2.83;;;2.00;;
67378;SDS011;54262;44.642;-0.974;2022-11-12T11:23:29;11.82;;;2.70;;
67378;SDS011;54262;44.642;-0.974;2022-11-12T11:26:01;3.28;;;2.65;;
67378;SDS011;54262;44.642;-0.974;2022-11-12T11:41:12;2.22;;;2.13;;
67378;SDS011;54262;44.642;-0.974;2022-11-12T11:56:30;2.10;;;2.00;;
67378;SDS011;54262;44.642;-0.974;2022-11-12T12:22:37;2.42;;;2.22;;
67378;SDS011;54262;44.642;-0.974;2022-11-12T12:25:11;3.70;;;2.83;;
67378;SDS011;54262;44.642;-0.974;2022-11-12T12:27:42;4.55;;;2.88;;
67378;SDS011;54262;44.642;-0.974;2022-11-12T12:30:20;5.45;;;2.90;;
67378;SDS011;54262;44.642;-0.974;2022-11-12T12:35:26;2.88;;;2.38;;
67378;SDS011;54262;44.642;-0.974;2022-11-12T12:40:36;2.42;;;2.30;;
67378;SDS011;54262;44.642;-0.974;2022-11-12T12:43:11;5.38;;;2.88;;
67378;SDS011;54262;44.642;-0.974;2022-11-12T12:45:42;3.30;;;3.00;;
67378;SDS011;54262;44.642;-0.974;2022-11-12T12:48:12;3.28;;;2.80;;
67378;SDS011;54262;44.642;-0.974;2022-11-12T12:50:40;2.47;;;2.28;;
67378;SDS011;54262;44.642;-0.974;2022-11-12T12:55:40;3.42;;;2.38;;
67378;SDS011;54262;44.642;-0.974;2022-11-12T12:58:17;5.95;;;3.20;;
67378;SDS011;54262;44.642;-0.974;2022-11-12T13:00:48;2.50;;;2.40;;
67378;SDS011;54262;44.642;-0.974;2022-11-12T13:08:49;3.08;;;1.90;;
67378;SDS011;54262;44.642;-0.974;2022-11-12T13:19:28;3.38;;;2.58;;
67378;SDS011;54262;44.642;-0.974;2022-11-12T13:40:14;3.28;;;2.70;;
67378;SDS011;54262;44.642;-0.974;2022-11-12T13:42:42;5.72;;;2.30;;
67378;SDS011;54262;44.642;-0.974;2022-11-12T13:45:14;3.03;;;2.00;;
67378;SDS011;54262;44.642;-0.974;2022-11-12T13:47:41;2.42;;;2.10;;
67378;SDS011;54262;44.642;-0.974;2022-11-12T13:50:09;2.47;;;2.28;;
67378;SDS011;54262;44.642;-0.974;2022-11-12T13:52:38;1.55;;;1.45;;
67378;SDS011;54262;44.642;-0.974;2022-11-12T13:55:06;2.53;;;2.35;;
67378;SDS011;54262;44.642;-0.974;2022-11-12T13:57:32;3.97;;;2.10;;
67378;SDS011;54262;44.642;-0.974;2022-11-12T14:02:44;2.75;;;2.55;;
67378;SDS011;54262;44.642;-0.974;2022-11-12T14:05:18;2.50;;;2.30;;
67378;SDS011;54262;44.642;-0.974;2022-11-12T14:07:53;3.60;;;2.83;;
67378;SDS011;54262;44.642;-0.974;2022-11-12T14:10:25;2.45;;;2.03;;
67378;SDS011;54262;44.642;-0.974;2022-11-12T14:13:13;2.17;;;1.95;;
67378;SDS011;54262;44.642;-0.974;2022-11-12T14:23:08;2.00;;;1.88;;
67378;SDS011;54262;44.642;-0.974;2022-11-12T14:25:44;4.78;;;2.58;;
67378;SDS011;54262;44.642;-0.974;2022-11-12T14:28:24;3.08;;;2.10;;
67378;SDS011;54262;44.642;-0.974;2022-11-12T14:30:51;2.75;;;2.10;;
67378;SDS011;54262;44.642;-0.974;2022-11-12T14:33:18;4.43;;;2.75;;
67378;SDS011;54262;44.642;-0.974;2022-11-12T14:35:45;2.47;;;2.28;;
67378;SDS011;54262;44.642;-0.974;2022-11-12T14:38:22;3.60;;;2.60;;
67378;SDS011;54262;44.642;-0.974;2022-11-12T14:40:57;2.55;;;2.22;;
67378;SDS011;54262;44.642;-0.974;2022-11-12T14:45:50;2.90;;;2.38;;
67378;SDS011;54262;44.642;-0.974;2022-11-12T14:48:16;2.70;;;2.42;;
67378;SDS011;54262;44.642;-0.974;2022-11-12T14:50:44;4.35;;;2.85;;
67378;SDS011;54262;44.642;-0.974;2022-11-12T14:53:31;4.00;;;2.65;;
67378;SDS011;54262;44.642;-0.974;2022-11-12T14:55:59;3.63;;;3.08;;
67378;SDS011;54262;44.642;-0.974;2022-11-12T14:58:26;2.60;;;2.40;;
67378;SDS011;54262;44.642;-0.974;2022-11-12T15:00:53;3.83;;;2.15;;
67378;SDS011;54262;44.642;-0.974;2022-11-12T15:03:21;3.03;;;2.53;;
67378;SDS011;54262;44.642;-0.974;2022-11-12T15:05:52;2.55;;;2.35;;
67378;SDS011;54262;44.642;-0.974;2022-11-12T15:08:32;3.45;;;2.90;;
67378;SDS011;54262;44.642;-0.974;2022-11-12T15:13:40;4.75;;;2.72;;
67378;SDS011;54262;44.642;-0.974;2022-11-12T15:16:07;6.55;;;2.92;;
67378;SDS011;54262;44.642;-0.974;2022-11-12T15:18:34;6.97;;;2.75;;
67378;SDS011;54262;44.642;-0.974;2022-11-12T15:23:27;6.20;;;2.90;;
67378;SDS011;54262;44.642;-0.974;2022-11-12T15:25:57;3.72;;;3.42;;
67378;SDS011;54262;44.642;-0.974;2022-11-12T15:28:24;2.95;;;2.50;;
67378;SDS011;54262;44.642;-0.974;2022-11-12T15:31:07;5.05;;;2.50;;
67378;SDS011;54262;44.642;-0.974;2022-11-12T15:33:33;4.63;;;2.40;;
67378;SDS011;54262;44.642;-0.974;2022-11-12T15:36:00;3.75;;;3.13;;
67378;SDS011;54262;44.642;-0.974;2022-11-12T15:38:27;3.67;;;2.10;;
67378;SDS011;54262;44.642;-0.974;2022-11-12T15:40:59;3.50;;;2.95;;
67378;SDS011;54262;44.642;-0.974;2022-11-12T15:43:30;6.93;;;2.88;;
67378;SDS011;54262;44.642;-0.974;2022-11-12T15:45:57;3.03;;;2.50;;
67378;SDS011;54262;44.642;-0.974;2022-11-12T15:48:23;3.33;;;2.33;;
67378;SDS011;54262;44.642;-0.974;2022-11-12T15:50:49;2.65;;;2.28;;
67378;SDS011;54262;44.642;-0.974;2022-11-12T15:53:15;4.95;;;3.00;;
67378;SDS011;54262;44.642;-0.974;2022-11-12T15:55:42;3.17;;;2.58;;
67378;SDS011;54262;44.642;-0.974;2022-11-12T15:58:10;2.90;;;2.00;;
67378;SDS011;54262;44.642;-0.974;2022-11-12T16:00:38;2.58;;;2.38;;
67378;SDS011;54262;44.642;-0.974;2022-11-12T16:05:30;7.50;;;2.78;;
67378;SDS011;54262;44.642;-0.974;2022-11-12T16:07:56;5.45;;;2.95;;
67378;SDS011;54262;44.642;-0.974;2022-11-12T16:10:22;3.70;;;2.60;;
67378;SDS011;54262;44.642;-0.974;2022-11-12T16:12:48;4.32;;;2.67;;
67378;SDS011;54262;44.642;-0.974;2022-11-12T16:15:16;5.45;;;2.90;;
67378;SDS011;54262;44.642;-0.974;2022-11-12T16:17:43;1.77;;;1.67;;
67378;SDS011;54262;44.642;-0.974;2022-11-12T16:20:23;7.07;;;2.45;;
67378;SDS011;54262;44.642;-0.974;2022-11-12T16:22:49;3.72;;;2.42;;
67378;SDS011;54262;44.642;-0.974;2022-11-12T16:25:16;3.95;;;2.20;;
67378;SDS011;54262;44.642;-0.974;2022-11-12T16:27:46;5.25;;;2.60;;
67378;SDS011;54262;44.642;-0.974;2022-11-12T16:30:13;2.90;;;2.15;;
67378;SDS011;54262;44.642;-0.974;2022-11-12T16:32:40;6.07;;;2.22;;
67378;SDS011;54262;44.642;-0.974;2022-11-12T16:35:06;2.92;;;2.60;;
67378;SDS011;54262;44.642;-0.974;2022-11-12T16:37:32;2.40;;;2.20;;
67378;SDS011;54262;44.642;-0.974;2022-11-12T16:39:58;2.17;;;2.08;;
67378;SDS011;54262;44.642;-0.974;2022-11-12T16:42:24;2.45;;;2.25;;
67378;SDS011;54262;44.642;-0.974;2022-11-12T16:44:50;2.13;;;2.00;;
67378;SDS011;54262;44.642;-0.974;2022-11-12T16:47:16;2.10;;;1.90;;
67378;SDS011;54262;44.642;-0.974;2022-11-12T16:49:43;3.35;;;2.70;;
67378;SDS011;54262;44.642;-0.974;2022-11-12T16:52:09;2.47;;;2.10;;
67378;SDS011;54262;44.642;-0.974;2022-11-12T16:54:35;9.13;;;2.40;;
67378;SDS011;54262;44.642;-0.974;2022-11-12T16:57:01;3.97;;;3.67;;